createdAt,value
2018-04-04T00:02:15.355Z,54.03
2018-04-04T00:04:47.635Z,54.16
2018-04-04T00:07:20.149Z,54.03
2018-04-04T00:09:54.187Z,54.07
2018-04-04T00:12:26.459Z,54.12
2018-04-04T00:14:59.311Z,54.14
2018-04-04T00:17:32.140Z,54.29
2018-04-04T00:20:05.543Z,54.42
2018-04-04T00:22:38.000Z,54.58
2018-04-04T00:25:11.470Z,54.67
2018-04-04T00:27:42.982Z,54.71
2018-04-04T00:30:19.462Z,54.67
2018-04-04T00:32:51.819Z,55.03
2018-04-04T00:35:23.158Z,55.00
2018-04-04T00:37:55.029Z,55.02
2018-04-04T00:40:28.204Z,54.86
2018-04-04T00:43:00.976Z,55.31
2018-04-04T00:45:34.236Z,55.43
2018-04-04T00:48:07.873Z,55.69
2018-04-04T00:50:40.169Z,55.90
2018-04-04T00:53:30.738Z,55.66
2018-04-04T00:56:14.201Z,55.35
2018-04-04T00:58:47.957Z,55.74
2018-04-04T01:01:20.956Z,55.93
2018-04-04T01:04:02.195Z,56.03
2018-04-04T01:06:42.871Z,56.18
2018-04-04T01:09:15.210Z,56.30
2018-04-04T01:11:47.447Z,56.61
2018-04-04T01:14:31.666Z,56.54
2018-04-04T01:17:05.951Z,56.29
2018-04-04T01:19:41.380Z,56.62
2018-04-04T01:22:12.897Z,56.70
2018-04-04T01:24:44.275Z,56.68
2018-04-04T01:27:15.815Z,57.25
2018-04-04T01:29:47.747Z,57.51
2018-04-04T01:32:19.742Z,56.77
2018-04-04T01:34:52.086Z,56.82
2018-04-04T01:37:23.440Z,56.96
2018-04-04T01:39:55.862Z,57.18
2018-04-04T01:42:30.070Z,57.29
2018-04-04T01:45:01.133Z,57.15
2018-04-04T01:47:36.646Z,56.69
2018-04-04T01:50:07.974Z,56.45
2018-04-04T01:52:39.117Z,56.35
2018-04-04T01:55:11.713Z,56.40
2018-04-04T01:57:43.477Z,56.15
2018-04-04T02:00:20.869Z,56.52
2018-04-04T02:02:53.762Z,56.41
2018-04-04T02:05:25.388Z,56.73
2018-04-04T02:07:57.325Z,57.04
2018-04-04T02:10:28.559Z,57.42
2018-04-04T02:13:00.702Z,57.88
2018-04-04T02:15:31.295Z,58.50
2018-04-04T02:18:09.596Z,58.93
2018-04-04T02:20:42.802Z,58.68
2018-04-04T02:23:15.416Z,58.48
2018-04-04T02:25:45.980Z,58.83
2018-04-04T02:28:17.765Z,58.14
2018-04-04T02:30:50.648Z,57.90
2018-04-04T02:33:22.778Z,57.66
2018-04-04T02:35:55.230Z,57.19
2018-04-04T02:38:26.285Z,57.56
2018-04-04T02:41:02.552Z,57.51
2018-04-04T02:43:34.870Z,57.16
2018-04-04T02:46:05.777Z,57.14
2018-04-04T02:48:37.075Z,57.12
2018-04-04T02:51:08.293Z,57.45
2018-04-04T02:53:46.963Z,57.16
2018-04-04T02:56:18.823Z,56.97
2018-04-04T02:58:51.377Z,56.89
2018-04-04T03:01:22.260Z,56.88
2018-04-04T03:03:54.572Z,56.94
2018-04-04T03:06:25.795Z,57.01
2018-04-04T03:08:57.531Z,57.19
2018-04-04T03:11:28.130Z,56.99
2018-04-04T03:13:59.915Z,56.99
2018-04-04T03:16:30.839Z,57.02
2018-04-04T03:19:02.036Z,57.13
2018-04-04T03:21:33.999Z,57.16
2018-04-04T03:24:05.217Z,57.09
2018-04-04T03:26:36.461Z,57.62
2018-04-04T03:29:07.318Z,57.94
2018-04-04T03:31:39.270Z,58.38
2018-04-04T03:34:12.329Z,58.88
2018-04-04T03:39:22.208Z,58.86
2018-04-04T03:41:53.767Z,59.29
2018-04-04T03:44:25.339Z,59.22
2018-04-04T03:46:57.900Z,59.38
2018-04-04T03:49:31.053Z,59.59
2018-04-04T03:52:03.408Z,60.01
2018-04-04T03:54:35.426Z,60.37
2018-04-04T03:57:06.308Z,60.78
2018-04-04T03:59:37.597Z,60.69
2018-04-04T04:02:08.578Z,60.25
2018-04-04T04:04:40.073Z,60.03
2018-04-04T04:07:11.147Z,59.50
2018-04-04T04:09:42.684Z,59.39
2018-04-04T04:12:22.828Z,59.16
2018-04-04T04:15:03.731Z,59.39
2018-04-04T04:17:35.987Z,59.82
2018-04-04T04:20:07.017Z,59.96
2018-04-04T04:22:38.975Z,59.86
2018-04-04T04:25:11.600Z,60.02
2018-04-04T04:27:43.284Z,60.17
2018-04-04T04:30:18.315Z,60.35
2018-04-04T04:32:49.734Z,60.00
2018-04-04T04:35:21.230Z,60.60
2018-04-04T04:37:58.888Z,61.13
2018-04-04T04:40:30.575Z,61.45
2018-04-04T04:43:01.971Z,61.52
2018-04-04T04:45:33.399Z,61.71
2018-04-04T04:48:04.619Z,61.63
2018-04-04T04:50:36.421Z,62.13
2018-04-04T04:53:08.064Z,62.31
2018-04-04T04:55:39.446Z,62.80
2018-04-04T04:58:17.172Z,62.77
2018-04-04T05:00:49.157Z,62.71
2018-04-04T05:03:21.558Z,62.27
2018-04-04T05:06:03.189Z,62.26
2018-04-04T05:08:34.883Z,62.53
2018-04-04T05:11:06.215Z,62.15
2018-04-04T05:13:41.350Z,61.82
2018-04-04T05:16:14.563Z,61.44
2018-04-04T05:18:46.078Z,61.49
2018-04-04T05:21:17.418Z,60.96
2018-04-04T05:23:49.708Z,60.67
2018-04-04T05:26:20.862Z,60.52
2018-04-04T05:28:54.317Z,59.90
2018-04-04T05:31:27.983Z,60.30
2018-04-04T05:33:59.001Z,59.65
2018-04-04T05:36:29.987Z,59.63
2018-04-04T05:39:04.663Z,59.62
2018-04-04T05:41:36.800Z,59.88
2018-04-04T05:44:11.266Z,59.96
2018-04-04T05:46:44.852Z,59.97
2018-04-04T05:49:18.626Z,60.42
2018-04-04T05:51:59.199Z,60.44
2018-04-04T05:54:31.728Z,60.85
2018-04-04T05:57:06.416Z,60.84
2018-04-04T05:59:41.383Z,61.04
2018-04-04T06:02:20.468Z,61.15
2018-04-04T06:04:57.980Z,60.90
2018-04-04T06:07:32.293Z,61.18
2018-04-04T06:10:04.873Z,61.48
2018-04-04T06:12:37.782Z,61.14
2018-04-04T06:15:14.184Z,61.17
2018-04-04T06:17:46.738Z,61.45
2018-04-04T06:20:20.123Z,61.78
2018-04-04T06:22:53.120Z,62.06
2018-04-04T06:25:25.842Z,62.61
2018-04-04T06:27:59.381Z,62.51
2018-04-04T06:30:37.577Z,62.84
2018-04-04T06:33:10.039Z,63.20
2018-04-04T06:35:41.312Z,63.62
2018-04-04T06:38:14.123Z,63.91
2018-04-04T06:40:47.030Z,63.71
2018-04-04T06:43:18.877Z,63.73
2018-04-04T06:45:50.358Z,63.63
2018-04-04T06:48:22.801Z,63.94
2018-04-04T06:50:55.463Z,64.46
2018-04-04T06:53:28.024Z,64.92
2018-04-04T06:55:59.559Z,64.99
2018-04-04T06:58:31.300Z,66.88
2018-04-04T07:01:04.239Z,66.78
2018-04-04T07:03:35.526Z,66.50
2018-04-04T07:06:08.266Z,67.60
2018-04-04T07:08:41.311Z,69.33
2018-04-04T07:11:13.905Z,68.46
2018-04-04T07:13:46.522Z,67.85
2018-04-04T07:16:20.104Z,69.54
2018-04-04T07:18:54.159Z,69.11
2018-04-04T07:21:30.514Z,70.19
2018-04-04T07:24:04.548Z,70.73
2018-04-04T07:26:47.200Z,71.74
2018-04-04T07:29:19.782Z,70.48
2018-04-04T07:32:07.377Z,69.97
2018-04-04T07:34:41.919Z,69.45
2018-04-04T07:37:14.627Z,69.27
2018-04-04T07:39:46.542Z,69.52
2018-04-04T07:42:18.236Z,69.40
2018-04-04T07:44:49.631Z,69.34
2018-04-04T07:47:22.141Z,69.88
2018-04-04T07:49:54.645Z,69.33
2018-04-04T07:52:27.990Z,69.24
2018-04-04T07:55:00.968Z,69.48
2018-04-04T07:57:33.511Z,69.79
2018-04-04T08:00:17.112Z,70.18
2018-04-04T08:02:49.475Z,70.59
2018-04-04T08:05:22.270Z,70.11
2018-04-04T08:07:54.030Z,69.45
2018-04-04T08:10:25.786Z,69.57
2018-04-04T08:12:58.975Z,69.25
2018-04-04T08:15:31.389Z,69.50
2018-04-04T08:18:03.133Z,69.78
2018-04-04T08:20:34.803Z,69.64
2018-04-04T08:23:06.665Z,69.84
2018-04-04T08:25:39.164Z,69.14
2018-04-04T08:28:11.181Z,68.80
2018-04-04T08:30:44.123Z,68.87
2018-04-04T08:33:19.238Z,69.17
2018-04-04T08:35:50.831Z,68.78
2018-04-04T08:38:21.995Z,68.28
2018-04-04T08:40:54.482Z,68.32
2018-04-04T08:43:26.378Z,67.62
2018-04-04T08:46:02.118Z,68.49
2018-04-04T08:48:37.409Z,67.55
2018-04-04T08:51:09.923Z,67.59
2018-04-04T08:53:42.207Z,67.25
2018-04-04T08:56:15.698Z,67.29
2018-04-04T08:58:48.139Z,67.23
2018-04-04T09:01:21.841Z,66.78
2018-04-04T09:03:55.723Z,67.00
2018-04-04T09:06:28.283Z,66.78
2018-04-04T09:09:02.332Z,66.47
2018-04-04T09:11:34.516Z,66.00
2018-04-04T09:14:06.723Z,66.04
2018-04-04T09:16:39.384Z,65.84
2018-04-04T09:19:17.046Z,65.26
2018-04-04T09:21:52.230Z,64.93
2018-04-04T09:24:26.184Z,65.26
2018-04-04T09:26:58.422Z,63.83
2018-04-04T09:29:30.625Z,62.65
2018-04-04T09:32:03.131Z,61.87
2018-04-04T09:34:36.062Z,60.95
2018-04-04T09:37:08.874Z,61.12
2018-04-04T09:39:41.998Z,60.88
2018-04-04T09:42:15.148Z,61.70
2018-04-04T09:44:48.545Z,60.63
2018-04-04T09:47:22.309Z,60.02
2018-04-04T09:49:54.491Z,58.86
2018-04-04T09:52:27.088Z,58.65
2018-04-04T09:55:02.535Z,59.08
2018-04-04T09:57:35.540Z,59.74
2018-04-04T10:00:09.885Z,58.43
2018-04-04T10:02:43.269Z,57.98
2018-04-04T10:05:21.960Z,57.35
2018-04-04T10:07:54.034Z,55.95
2018-04-04T10:10:25.927Z,56.08
2018-04-04T10:12:58.085Z,55.96
2018-04-04T10:15:29.943Z,55.85
2018-04-04T10:18:02.371Z,55.20
2018-04-04T10:20:46.054Z,54.01
2018-04-04T10:23:19.594Z,53.04
2018-04-04T10:25:51.969Z,53.24
2018-04-04T10:28:24.894Z,53.48
2018-04-04T10:30:57.514Z,53.33
2018-04-04T10:33:32.366Z,53.54
2018-04-04T10:36:09.696Z,52.77
2018-04-04T10:38:45.622Z,55.31
2018-04-04T10:41:20.497Z,56.49
2018-04-04T10:43:59.781Z,55.25
2018-04-04T10:46:35.182Z,54.59
2018-04-04T10:49:08.107Z,56.18
2018-04-04T10:51:39.337Z,57.17
2018-04-04T10:54:13.728Z,59.04
2018-04-04T10:56:46.020Z,59.02
2018-04-04T10:59:19.798Z,56.55
2018-04-04T11:01:53.676Z,56.46
2018-04-04T11:04:28.974Z,57.11
2018-04-04T11:07:01.070Z,57.01
2018-04-04T11:09:33.632Z,56.30
2018-04-04T11:12:06.455Z,56.36
2018-04-04T11:14:40.713Z,59.05
2018-04-04T11:17:13.274Z,59.32
2018-04-04T11:19:46.549Z,57.95
2018-04-04T11:22:19.299Z,58.93
2018-04-04T11:24:52.017Z,59.48
2018-04-04T11:27:23.679Z,58.72
2018-04-04T11:29:56.189Z,60.30
2018-04-04T11:32:29.801Z,59.32
2018-04-04T11:35:02.022Z,58.76
2018-04-04T11:37:35.606Z,58.16
2018-04-04T11:40:07.820Z,57.91
2018-04-04T11:42:39.863Z,58.10
2018-04-04T11:45:14.899Z,59.12
2018-04-04T11:47:52.410Z,60.91
2018-04-04T11:50:25.210Z,60.29
2018-04-04T11:52:58.144Z,59.47
2018-04-04T11:55:30.840Z,60.49
2018-04-04T11:58:09.624Z,61.42
2018-04-04T12:00:42.683Z,61.04
2018-04-04T12:03:18.241Z,60.92
2018-04-04T12:06:01.545Z,59.45
2018-04-04T12:08:36.136Z,58.78
2018-04-04T12:11:12.286Z,58.48
2018-04-04T12:13:45.060Z,59.80
2018-04-04T12:16:17.856Z,59.52
2018-04-04T12:18:55.213Z,58.18
2018-04-04T12:21:27.978Z,57.64
2018-04-04T12:24:05.660Z,57.39
2018-04-04T12:26:39.410Z,56.98
2018-04-04T12:29:16.405Z,56.42
2018-04-04T12:31:48.220Z,56.58
2018-04-04T12:34:21.072Z,57.31
2018-04-04T12:36:52.889Z,57.35
2018-04-04T12:39:25.616Z,57.19
2018-04-04T12:41:57.735Z,56.90
2018-04-04T12:44:31.082Z,56.21
2018-04-04T12:47:05.204Z,57.01
2018-04-04T12:49:37.337Z,58.04
2018-04-04T12:52:09.475Z,58.75
2018-04-04T12:54:42.440Z,57.60
2018-04-04T12:57:15.032Z,56.83
2018-04-04T12:59:49.053Z,57.69
2018-04-04T13:02:22.728Z,57.95
2018-04-04T13:04:54.387Z,59.59
2018-04-04T13:07:28.043Z,58.61
2018-04-04T13:10:00.449Z,57.90
2018-04-04T13:12:38.057Z,57.65
2018-04-04T13:15:09.891Z,58.19
2018-04-04T13:17:44.306Z,58.86
2018-04-04T13:20:17.171Z,58.65
2018-04-04T13:22:50.568Z,58.73
2018-04-04T13:25:23.302Z,58.69
2018-04-04T13:27:59.623Z,58.04
2018-04-04T13:30:35.020Z,58.29
2018-04-04T13:33:07.565Z,57.77
2018-04-04T13:35:40.241Z,57.66
2018-04-04T13:38:12.574Z,58.43
2018-04-04T13:40:45.118Z,57.83
2018-04-04T13:43:17.680Z,58.09
2018-04-04T13:45:50.989Z,58.11
2018-04-04T13:48:22.574Z,57.90
2018-04-04T13:50:55.389Z,57.81
2018-04-04T13:53:27.180Z,56.70
2018-04-04T13:55:59.250Z,56.27
2018-04-04T13:58:31.883Z,56.95
2018-04-04T14:01:04.835Z,56.50
2018-04-04T14:03:38.387Z,57.63
2018-04-04T14:06:11.677Z,57.90
2018-04-04T14:08:53.383Z,57.19
2018-04-04T14:11:27.854Z,56.30
2018-04-04T14:14:01.371Z,55.37
2018-04-04T14:16:34.941Z,55.14
2018-04-04T14:19:08.251Z,56.60
2018-04-04T14:21:42.033Z,56.71
2018-04-04T14:24:15.020Z,56.33
2018-04-04T14:26:46.817Z,57.40
2018-04-04T14:29:18.563Z,56.41
2018-04-04T14:31:49.944Z,56.63
2018-04-04T14:34:22.179Z,56.07
2018-04-04T14:36:53.864Z,56.33
2018-04-04T14:39:27.341Z,57.03
2018-04-04T14:42:04.840Z,56.62
2018-04-04T14:44:40.519Z,55.76
2018-04-04T14:47:28.381Z,56.72
2018-04-04T14:50:01.192Z,56.87
2018-04-04T14:52:42.221Z,57.37
2018-04-04T15:05:58.235Z,56.25
2018-04-04T15:08:47.118Z,55.04
2018-04-04T15:11:23.114Z,54.54
2018-04-04T15:16:50.092Z,54.41
2018-04-04T15:19:24.131Z,55.14
2018-04-04T15:21:56.696Z,52.92
2018-04-04T15:27:25.510Z,52.60
2018-04-04T15:29:57.223Z,54.14
2018-04-04T15:37:42.081Z,55.09
2018-04-04T15:40:14.791Z,54.95
2018-04-04T15:42:45.938Z,53.49
2018-04-04T15:45:20.776Z,52.51
2018-04-04T15:47:53.467Z,52.36
2018-04-04T15:50:39.790Z,52.98
2018-04-04T15:53:15.114Z,53.13
2018-04-04T15:55:48.635Z,52.74
2018-04-04T15:58:22.611Z,53.29
2018-04-04T16:00:57.930Z,53.26
2018-04-04T16:06:38.357Z,52.06
2018-04-04T16:09:20.365Z,51.99
2018-04-04T16:11:54.119Z,52.14
2018-04-04T16:14:30.976Z,51.92
2018-04-04T16:17:03.933Z,52.73
2018-04-04T16:19:35.400Z,52.39
2018-04-04T16:22:06.424Z,52.13
2018-04-04T16:24:37.569Z,52.28
2018-04-04T16:27:09.001Z,52.12
2018-04-04T16:32:40.659Z,52.34
2018-04-04T16:35:11.668Z,52.55
2018-04-04T16:37:42.819Z,52.81
2018-04-04T16:40:13.814Z,52.18
2018-04-04T16:42:45.219Z,52.71
2018-04-04T16:45:16.872Z,52.52
2018-04-04T16:47:48.316Z,53.47
2018-04-04T16:50:19.963Z,53.45
2018-04-04T16:52:54.677Z,52.83
2018-04-04T16:55:26.643Z,53.21
2018-04-04T16:58:02.750Z,52.96
2018-04-04T17:00:51.503Z,53.53
2018-04-04T17:03:28.716Z,53.06
2018-04-04T17:06:05.203Z,53.52
2018-04-04T17:08:48.853Z,53.52
2018-04-04T17:11:24.524Z,53.68
2018-04-04T17:14:07.467Z,54.50
2018-04-04T17:16:42.486Z,54.05
2018-04-04T17:19:15.284Z,54.62
2018-04-04T17:21:51.310Z,54.47
2018-04-04T17:24:24.956Z,54.69
2018-04-04T17:27:17.941Z,55.29
2018-04-04T17:29:51.276Z,55.44
2018-04-04T17:32:23.815Z,55.92
2018-04-04T17:34:55.089Z,55.51
2018-04-04T17:47:11.755Z,55.59
2018-04-04T17:49:44.764Z,55.43
2018-04-04T17:52:29.616Z,54.75
2018-04-04T17:57:31.540Z,55.43
2018-04-04T18:00:06.024Z,55.01
2018-04-04T18:02:39.060Z,55.30
2018-04-04T18:05:11.360Z,55.55
2018-04-04T18:07:50.198Z,54.93
2018-04-04T18:10:23.855Z,54.67
2018-04-04T18:12:59.227Z,55.44
2018-04-04T18:15:35.190Z,55.69
2018-04-04T18:18:30.557Z,55.09
2018-04-04T18:21:02.938Z,55.70
2018-04-04T18:23:35.601Z,56.28
2018-04-04T18:26:07.416Z,56.26
2018-04-04T18:28:42.103Z,55.99
2018-04-04T18:31:17.327Z,56.10
2018-04-04T18:33:51.180Z,55.42
2018-04-04T18:36:23.040Z,55.75
2018-04-04T18:39:00.913Z,55.89
2018-04-04T18:41:35.001Z,55.92
2018-04-04T18:44:07.013Z,56.12
2018-04-04T18:46:39.816Z,56.54
2018-04-04T18:49:11.498Z,55.95
2018-04-04T18:51:47.847Z,56.39
2018-04-04T18:54:22.323Z,56.10
2018-04-04T18:56:54.266Z,55.46
2018-04-04T18:59:25.226Z,55.66
2018-04-04T19:02:05.117Z,56.16
2018-04-04T19:04:37.467Z,56.33
2018-04-04T19:07:11.463Z,56.04
2018-04-04T19:09:45.214Z,55.88
2018-04-04T19:12:18.549Z,55.37
2018-04-04T19:14:51.110Z,55.59
2018-04-04T19:17:25.600Z,55.91
2018-04-04T19:20:08.981Z,55.38
2018-04-04T19:22:43.485Z,55.80
2018-04-04T19:25:18.524Z,55.94
2018-04-04T19:27:53.052Z,55.82
2018-04-04T19:30:28.879Z,56.47
2018-04-04T19:33:01.432Z,57.03
2018-04-04T19:35:34.564Z,56.94
2018-04-04T19:38:08.579Z,56.38
2018-04-04T19:40:43.136Z,56.89
2018-04-04T19:43:17.298Z,57.38
2018-04-04T19:46:02.580Z,57.87
2018-04-04T19:48:37.018Z,58.54
2018-04-04T19:51:08.153Z,58.47
2018-04-04T19:53:41.820Z,58.39
2018-04-04T19:56:13.465Z,58.54
2018-04-04T19:58:45.912Z,59.07
2018-04-04T20:01:18.605Z,58.36
2018-04-04T20:03:51.217Z,58.09
2018-04-04T20:06:23.341Z,58.84
2018-04-04T20:08:55.441Z,59.19
2018-04-04T20:11:30.670Z,58.70
2018-04-04T20:14:06.733Z,58.88
2018-04-04T20:16:40.537Z,58.74
2018-04-04T20:19:12.621Z,58.78
2018-04-04T20:21:44.516Z,59.38
2018-04-04T20:24:18.611Z,59.40
2018-04-04T20:26:55.788Z,59.56
2018-04-04T20:29:29.718Z,59.98
2018-04-04T20:32:03.631Z,58.92
2018-04-04T20:34:36.441Z,57.61
2018-04-04T20:37:10.179Z,57.50
2018-04-04T20:39:45.146Z,57.56
2018-04-04T20:42:17.905Z,57.16
2018-04-04T20:44:53.365Z,58.29
2018-04-04T20:47:26.681Z,58.17
2018-04-04T20:50:01.942Z,58.76
2018-04-04T20:52:33.737Z,59.52
2018-04-04T20:55:07.396Z,58.46
2018-04-04T20:57:41.876Z,58.43
2018-04-04T21:00:20.104Z,59.07
2018-04-04T21:02:58.542Z,58.74
2018-04-04T21:05:31.135Z,58.74
2018-04-04T21:08:04.893Z,58.27
2018-04-04T21:10:36.824Z,58.61
2018-04-04T21:13:09.662Z,58.44
2018-04-04T21:15:43.102Z,58.07
2018-04-04T21:18:17.931Z,58.05
2018-04-04T21:20:50.564Z,58.24
2018-04-04T21:23:24.941Z,58.20
2018-04-04T21:26:03.131Z,57.56
2018-04-04T21:28:39.114Z,56.91
2018-04-04T21:31:13.074Z,57.25
2018-04-04T21:33:46.925Z,56.67
2018-04-04T21:36:22.694Z,56.45
2018-04-04T21:38:57.746Z,56.41
2018-04-04T21:41:30.990Z,55.75
2018-04-04T21:44:05.310Z,55.83
2018-04-04T21:46:38.170Z,55.58
2018-04-04T21:49:11.376Z,55.55
2018-04-04T21:51:44.674Z,55.24
2018-04-04T21:54:16.171Z,55.47
2018-04-04T21:57:02.421Z,54.66
2018-04-04T21:59:36.706Z,54.38
2018-04-04T22:02:10.963Z,54.13
2018-04-04T22:04:44.812Z,54.06
2018-04-04T22:07:21.653Z,54.02
2018-04-04T22:09:56.090Z,53.51
2018-04-04T22:12:28.171Z,53.52
2018-04-04T22:15:00.375Z,53.69
2018-04-04T22:17:34.960Z,53.33
2018-04-04T22:20:07.418Z,53.20
2018-04-04T22:22:39.107Z,53.69
2018-04-04T22:25:12.122Z,53.31
2018-04-04T22:27:43.701Z,53.08
2018-04-04T22:30:20.622Z,53.10
2018-04-04T22:32:53.784Z,53.19
2018-04-04T22:35:26.621Z,53.15
2018-04-04T22:37:58.461Z,53.44
2018-04-04T22:40:30.778Z,53.22
2018-04-04T22:43:02.232Z,53.55
2018-04-04T22:45:34.920Z,53.36
2018-04-04T22:48:06.662Z,53.25
2018-04-04T22:50:38.208Z,53.33
2018-04-04T22:53:09.985Z,53.10
2018-04-04T22:55:42.332Z,53.24
2018-04-04T22:58:15.485Z,53.77
2018-04-04T23:00:48.288Z,53.79
2018-04-04T23:03:21.369Z,53.43
2018-04-04T23:05:53.786Z,53.95
2018-04-04T23:08:27.423Z,53.69
2018-04-04T23:10:59.072Z,53.51
2018-04-04T23:13:31.098Z,53.91
2018-04-04T23:16:03.775Z,54.26
2018-04-04T23:18:35.678Z,54.74
2018-04-04T23:21:07.606Z,54.81
2018-04-04T23:23:40.792Z,54.79
2018-04-04T23:26:13.357Z,55.35
2018-04-04T23:28:46.158Z,56.08
2018-04-04T23:31:19.087Z,57.27
2018-04-04T23:33:51.771Z,57.35
2018-04-04T23:36:25.646Z,57.08
2018-04-04T23:38:57.474Z,57.56
2018-04-04T23:41:29.742Z,57.59
2018-04-04T23:44:02.181Z,57.30
2018-04-04T23:46:35.096Z,56.94
2018-04-04T23:49:08.384Z,57.01
2018-04-04T23:51:41.804Z,56.52
2018-04-04T23:54:14.894Z,56.38
2018-04-04T23:56:47.213Z,56.74
2018-04-04T23:59:18.783Z,56.79
